createdAt,value
2022-12-12T00:00:34.595Z,17.63
2022-12-12T00:04:36.702Z,16.27
2022-12-12T00:08:39.244Z,13.45
2022-12-12T00:12:41.604Z,13.35
2022-12-12T00:16:43.620Z,15.05
2022-12-12T00:20:45.934Z,20.83
2022-12-12T00:24:48.564Z,21.30
2022-12-12T00:28:50.931Z,19.60
2022-12-12T00:32:53.140Z,22.77
2022-12-12T00:36:55.192Z,19.90
2022-12-12T00:40:59.872Z,19.52
2022-12-12T00:45:02.724Z,23.00
2022-12-12T00:49:05.057Z,19.38
2022-12-12T00:53:07.140Z,24.25
2022-12-12T00:57:09.223Z,32.53
2022-12-12T01:01:17.280Z,62.45
2022-12-12T01:05:20.225Z,46.05
2022-12-12T01:09:22.698Z,50.88
2022-12-12T01:13:25.381Z,148.30
2022-12-12T01:17:27.487Z,83.35
2022-12-12T01:21:30.565Z,95.90
2022-12-12T01:25:32.964Z,93.35
2022-12-12T01:29:35.613Z,122.90
2022-12-12T01:33:38.496Z,169.52
2022-12-12T01:37:41.642Z,112.72
2022-12-12T01:41:43.892Z,58.28
2022-12-12T01:45:58.709Z,68.40
2022-12-12T01:54:30.409Z,72.45
2022-12-12T01:58:33.355Z,130.88
2022-12-12T02:02:36.888Z,76.75
2022-12-12T02:06:39.623Z,87.72
2022-12-12T02:10:43.864Z,141.20
2022-12-12T02:14:51.552Z,108.18
2022-12-12T02:19:18.513Z,66.28
2022-12-12T02:23:41.666Z,111.75
2022-12-12T02:28:29.760Z,108.57
2022-12-12T02:32:47.522Z,137.52
2022-12-12T02:37:10.611Z,113.55
2022-12-12T02:41:26.754Z,74.70
2022-12-12T02:45:37.191Z,83.47
2022-12-12T02:49:47.918Z,84.40
2022-12-12T02:53:50.000Z,114.75
2022-12-12T02:57:53.779Z,83.10
2022-12-12T03:02:15.220Z,57.25
2022-12-12T03:06:50.424Z,41.90
2022-12-12T03:15:00.973Z,134.18
2022-12-12T03:19:06.171Z,79.00
2022-12-12T03:23:14.806Z,92.80
2022-12-12T03:27:31.648Z,96.30
2022-12-12T03:31:38.461Z,68.90
2022-12-12T03:35:48.469Z,49.13
2022-12-12T03:39:56.084Z,74.70
2022-12-12T03:44:05.603Z,41.28
2022-12-12T03:48:08.350Z,44.17
2022-12-12T03:52:17.122Z,57.85
2022-12-12T03:56:30.776Z,49.88
2022-12-12T04:00:37.876Z,37.65
2022-12-12T04:04:55.804Z,33.08
2022-12-12T04:09:18.043Z,27.00
2022-12-12T04:14:09.941Z,12.68
2022-12-12T04:18:29.350Z,20.95
2022-12-12T04:22:58.256Z,75.13
2022-12-12T04:27:21.085Z,88.07
2022-12-12T04:31:27.158Z,11.48
2022-12-12T04:35:35.916Z,42.45
2022-12-12T04:39:41.542Z,36.30
2022-12-12T04:43:47.844Z,47.30
2022-12-12T04:47:53.030Z,42.67
2022-12-12T04:52:08.830Z,47.30
2022-12-12T04:56:14.174Z,25.00
2022-12-12T05:00:17.383Z,30.05
2022-12-12T05:04:31.236Z,14.23
2022-12-12T05:08:38.337Z,14.10
2022-12-12T05:12:48.477Z,18.52
2022-12-12T05:16:54.948Z,11.35
2022-12-12T05:20:57.028Z,14.30
2022-12-12T05:24:59.070Z,13.00
2022-12-12T05:29:06.970Z,10.25
2022-12-12T05:33:09.691Z,8.60
2022-12-12T05:37:11.838Z,8.55
2022-12-12T05:41:14.156Z,7.00
2022-12-12T05:45:16.278Z,8.55
2022-12-12T05:49:18.405Z,7.93
2022-12-12T05:53:21.473Z,8.38
2022-12-12T05:57:23.704Z,10.80
2022-12-12T06:01:25.849Z,10.27
2022-12-12T06:05:28.100Z,11.13
2022-12-12T06:09:30.140Z,12.32
2022-12-12T06:13:32.223Z,8.15
2022-12-12T06:17:34.590Z,6.30
2022-12-12T06:21:40.724Z,8.05
2022-12-12T06:25:43.541Z,6.75
2022-12-12T06:29:45.805Z,7.85
2022-12-12T06:33:47.897Z,7.85
2022-12-12T06:37:50.000Z,7.20
2022-12-12T06:41:52.850Z,6.82
2022-12-12T06:46:01.603Z,10.13
2022-12-12T06:50:03.936Z,8.63
2022-12-12T06:54:06.052Z,8.77
2022-12-12T06:58:08.252Z,10.00
2022-12-12T07:02:12.163Z,7.32
2022-12-12T07:06:14.593Z,9.80
2022-12-12T07:10:21.076Z,7.97
2022-12-12T07:14:25.238Z,11.73
2022-12-12T07:18:28.014Z,9.32
2022-12-12T07:22:30.160Z,8.80
2022-12-12T07:26:32.369Z,10.65
2022-12-12T07:30:35.083Z,10.02
2022-12-12T07:34:37.559Z,7.68
2022-12-12T07:38:40.049Z,8.88
2022-12-12T07:42:42.448Z,12.60
2022-12-12T07:46:44.789Z,8.73
2022-12-12T07:50:46.991Z,8.23
2022-12-12T07:54:49.168Z,9.82
2022-12-12T07:58:52.997Z,7.50
2022-12-12T08:02:55.206Z,9.40
2022-12-12T08:07:04.042Z,9.23
2022-12-12T08:11:13.607Z,10.82
2022-12-12T08:15:18.844Z,12.35
2022-12-12T08:19:21.189Z,13.30
2022-12-12T08:23:23.571Z,12.40
2022-12-12T08:27:25.880Z,13.50
2022-12-12T08:31:28.896Z,18.70
2022-12-12T08:35:32.621Z,13.40
2022-12-12T08:39:34.819Z,12.52
2022-12-12T08:43:38.280Z,9.68
2022-12-12T08:47:40.944Z,10.60
2022-12-12T08:51:43.497Z,7.60
2022-12-12T08:55:45.874Z,10.05
2022-12-12T08:59:48.022Z,11.50
2022-12-12T09:03:51.834Z,9.90
2022-12-12T09:07:53.957Z,7.57
2022-12-12T09:11:56.499Z,11.45
2022-12-12T09:15:58.914Z,10.00
2022-12-12T09:20:01.179Z,7.68
2022-12-12T09:24:03.640Z,6.30
2022-12-12T09:28:05.885Z,5.93
2022-12-12T09:32:08.427Z,6.32
2022-12-12T09:36:15.161Z,5.40
2022-12-12T09:40:21.893Z,5.25
2022-12-12T09:44:26.501Z,5.53
2022-12-12T09:48:38.826Z,4.55
2022-12-12T09:52:42.204Z,4.50
2022-12-12T09:56:54.838Z,3.67
2022-12-12T10:01:29.288Z,4.50
2022-12-12T10:06:13.864Z,5.20
2022-12-12T10:10:41.577Z,8.68
2022-12-12T10:14:50.797Z,7.78
2022-12-12T10:19:08.233Z,4.28
2022-12-12T10:23:36.216Z,6.43
2022-12-12T10:27:38.707Z,4.10
2022-12-12T10:32:05.731Z,3.33
2022-12-12T10:36:33.298Z,2.30
2022-12-12T10:40:48.365Z,4.88
2022-12-12T10:44:56.371Z,2.90
2022-12-12T10:48:58.559Z,2.70
2022-12-12T10:53:07.609Z,3.03
2022-12-12T10:57:19.535Z,2.78
2022-12-12T11:06:06.344Z,2.35
2022-12-12T11:10:26.881Z,7.13
2022-12-12T11:14:39.796Z,1.15
2022-12-12T11:18:57.363Z,1.83
2022-12-12T11:22:59.729Z,1.83
2022-12-12T11:27:07.704Z,1.40
2022-12-12T11:31:14.824Z,1.63
2022-12-12T11:35:36.478Z,1.60
2022-12-12T11:39:43.983Z,4.07
2022-12-12T11:43:49.186Z,1.85
2022-12-12T11:47:51.412Z,1.85
2022-12-12T11:51:54.032Z,2.53
2022-12-12T11:56:05.211Z,1.83
2022-12-12T12:00:15.743Z,1.83
2022-12-12T12:04:24.111Z,1.65
2022-12-12T12:08:40.534Z,1.17
2022-12-12T12:13:24.821Z,1.83
2022-12-12T12:17:48.111Z,2.33
2022-12-12T12:22:28.201Z,1.58
2022-12-12T12:26:49.711Z,1.58
2022-12-12T12:30:55.104Z,2.15
2022-12-12T12:35:31.336Z,4.15
2022-12-12T12:40:02.265Z,1.40
2022-12-12T12:44:58.303Z,1.60
2022-12-12T12:49:11.723Z,1.40
2022-12-12T12:53:38.768Z,1.27
2022-12-12T12:57:52.895Z,2.13
2022-12-12T13:01:57.912Z,4.68
2022-12-12T13:06:05.279Z,1.50
2022-12-12T13:10:11.605Z,1.83
2022-12-12T13:14:30.379Z,0.68
2022-12-12T13:18:45.022Z,0.70
2022-12-12T13:23:24.149Z,0.60
2022-12-12T13:27:46.148Z,0.60
2022-12-12T13:31:57.537Z,0.75
2022-12-12T13:36:12.556Z,0.98
2022-12-12T13:40:28.643Z,3.35
2022-12-12T13:44:48.381Z,2.05
2022-12-12T13:49:07.451Z,0.80
2022-12-12T13:53:09.804Z,1.35
2022-12-12T13:57:14.706Z,1.02
2022-12-12T14:01:30.094Z,0.85
2022-12-12T14:05:42.571Z,2.80
2022-12-12T14:09:50.763Z,3.22
2022-12-12T14:14:07.651Z,3.63
2022-12-12T14:18:25.880Z,4.22
2022-12-12T14:22:50.590Z,3.97
2022-12-12T14:26:53.145Z,3.28
2022-12-12T14:30:59.145Z,5.78
2022-12-12T14:35:29.312Z,2.97
2022-12-12T14:39:50.607Z,3.13
2022-12-12T14:44:34.977Z,2.60
2022-12-12T14:48:31.259Z,5.97
2022-12-12T14:52:33.457Z,5.22
2022-12-12T14:56:41.107Z,5.13
2022-12-12T15:00:56.823Z,2.45
2022-12-12T15:05:04.875Z,2.80
2022-12-12T15:09:31.748Z,1.15
2022-12-12T15:13:33.905Z,2.05
2022-12-12T15:17:49.636Z,3.80
2022-12-12T15:21:52.324Z,3.03
2022-12-12T15:25:55.845Z,2.60
2022-12-12T15:29:59.736Z,2.78
2022-12-12T15:34:01.838Z,4.47
2022-12-12T15:38:11.225Z,37.38
2022-12-12T15:42:14.674Z,5.95
2022-12-12T15:46:17.237Z,5.47
2022-12-12T15:50:23.512Z,2.28
2022-12-12T15:54:25.654Z,2.33
2022-12-12T15:58:31.556Z,2.05
2022-12-12T16:02:38.521Z,1.80
2022-12-12T16:06:44.212Z,2.17
2022-12-12T16:10:54.155Z,2.80
2022-12-12T16:14:56.506Z,4.70
2022-12-12T16:18:58.779Z,5.13
2022-12-12T16:23:39.479Z,8.25
2022-12-12T16:27:42.002Z,16.70
2022-12-12T16:31:45.873Z,11.40
2022-12-12T16:35:48.124Z,20.13
2022-12-12T16:39:50.239Z,8.48
2022-12-12T16:43:52.752Z,7.35
2022-12-12T16:47:55.439Z,12.68
2022-12-12T16:51:57.646Z,10.50
2022-12-12T16:55:59.846Z,13.55
2022-12-12T17:00:03.650Z,11.05
2022-12-12T17:04:07.783Z,10.40
2022-12-12T17:08:10.976Z,8.93
2022-12-12T17:12:39.824Z,8.00
2022-12-12T17:16:42.324Z,4.63
2022-12-12T17:20:45.389Z,3.13
2022-12-12T17:24:47.452Z,3.33
2022-12-12T17:28:49.629Z,4.28
2022-12-12T17:37:11.087Z,7.85
2022-12-12T17:41:14.380Z,9.52
2022-12-12T17:45:17.231Z,6.82
2022-12-12T17:49:19.449Z,8.77
2022-12-12T17:53:22.805Z,12.77
2022-12-12T17:57:25.599Z,11.95
2022-12-12T18:01:29.929Z,9.60
2022-12-12T18:05:32.347Z,8.35
2022-12-12T18:09:36.797Z,5.70
2022-12-12T18:13:40.808Z,12.23
2022-12-12T18:17:43.359Z,11.20
2022-12-12T18:22:02.264Z,10.07
2022-12-12T18:26:10.477Z,17.20
2022-12-12T18:30:13.616Z,21.35
2022-12-12T18:34:16.285Z,17.75
2022-12-12T18:43:39.833Z,34.88
2022-12-12T18:47:42.467Z,15.85
2022-12-12T18:51:46.297Z,10.70
2022-12-12T18:59:51.294Z,11.80
2022-12-12T19:04:04.544Z,28.02
2022-12-12T19:08:17.717Z,25.83
2022-12-12T19:12:19.918Z,20.10
2022-12-12T19:16:22.504Z,18.45
2022-12-12T19:20:25.365Z,17.73
2022-12-12T19:24:27.500Z,17.02
2022-12-12T19:28:29.814Z,21.70
2022-12-12T19:32:32.537Z,22.35
2022-12-12T19:36:36.019Z,20.48
2022-12-12T19:40:38.118Z,11.65
2022-12-12T19:44:43.503Z,18.92
2022-12-12T19:48:46.197Z,15.18
2022-12-12T19:52:48.411Z,17.85
2022-12-12T19:56:51.166Z,17.17
2022-12-12T20:00:53.409Z,18.13
2022-12-12T20:04:55.627Z,15.35
2022-12-12T20:09:00.476Z,19.65
2022-12-12T20:13:03.041Z,13.15
2022-12-12T20:17:05.381Z,15.30
2022-12-12T20:21:09.217Z,15.27
2022-12-12T20:25:11.341Z,13.60
2022-12-12T20:29:14.960Z,15.82
2022-12-12T20:33:17.022Z,14.17
2022-12-12T20:37:20.286Z,14.50
2022-12-12T20:41:25.542Z,14.68
2022-12-12T20:45:27.667Z,14.73
2022-12-12T20:49:30.758Z,23.25
2022-12-12T20:53:36.577Z,23.15
2022-12-12T20:57:39.428Z,15.10
2022-12-12T21:01:41.735Z,18.77
2022-12-12T21:05:44.076Z,18.00
2022-12-12T21:09:46.505Z,14.57
2022-12-12T21:13:51.052Z,20.02
2022-12-12T21:21:55.881Z,15.38
2022-12-12T21:25:58.129Z,16.00
2022-12-12T21:30:00.435Z,14.80
2022-12-12T21:34:03.766Z,14.05
2022-12-12T21:38:05.903Z,14.77
2022-12-12T21:42:08.311Z,15.30
2022-12-12T21:46:17.865Z,17.58
2022-12-12T21:50:20.889Z,19.95
2022-12-12T21:54:24.783Z,17.30
2022-12-12T21:58:27.098Z,21.52
2022-12-12T22:02:29.281Z,20.98
2022-12-12T22:06:34.364Z,48.75
2022-12-12T22:10:39.785Z,15.15
2022-12-12T22:14:42.076Z,14.48
2022-12-12T22:18:48.168Z,14.15
2022-12-12T22:22:50.281Z,16.58
2022-12-12T22:26:52.453Z,15.10
2022-12-12T22:30:55.685Z,18.27
2022-12-12T22:34:58.633Z,17.25
2022-12-12T22:39:01.475Z,17.90
2022-12-12T22:43:03.738Z,13.07
2022-12-12T22:47:06.074Z,13.48
2022-12-12T22:51:16.778Z,13.30
2022-12-12T22:55:19.051Z,12.10
2022-12-12T22:59:22.135Z,11.05
2022-12-12T23:03:24.322Z,12.38
2022-12-12T23:07:26.539Z,12.77
2022-12-12T23:11:31.105Z,11.52
2022-12-12T23:19:38.036Z,11.85
2022-12-12T23:23:40.718Z,13.18
2022-12-12T23:27:42.822Z,10.48
2022-12-12T23:31:45.220Z,8.98
2022-12-12T23:35:52.100Z,9.18
2022-12-12T23:39:54.731Z,10.30
2022-12-12T23:43:57.118Z,10.23
2022-12-12T23:47:59.224Z,7.50
2022-12-12T23:52:02.662Z,9.77
2022-12-12T23:56:05.133Z,11.02
